createdAt,value
2019-02-02T00:00:05.806Z,85.40
2019-02-02T00:01:05.795Z,86.30
2019-02-02T00:02:05.795Z,83.30
2019-02-02T00:03:05.774Z,86.80
2019-02-02T00:04:05.764Z,89.30
2019-02-02T00:05:05.754Z,90.90
2019-02-02T00:06:05.742Z,90.60
2019-02-02T00:07:05.744Z,90.80
2019-02-02T00:08:05.727Z,93.60
2019-02-02T00:09:05.712Z,93.30
2019-02-02T00:10:05.701Z,90.00
2019-02-02T00:11:05.690Z,94.70
2019-02-02T00:12:05.680Z,92.40
2019-02-02T00:13:05.677Z,93.50
2019-02-02T00:14:05.664Z,96.00
2019-02-02T00:15:05.647Z,99.90
2019-02-02T00:16:05.639Z,96.10
2019-02-02T00:17:05.626Z,99.20
2019-02-02T00:18:05.625Z,99.80
2019-02-02T00:19:05.606Z,100.50
2019-02-02T00:20:05.594Z,101.00
2019-02-02T00:21:05.584Z,99.70
2019-02-02T00:22:05.573Z,107.10
2019-02-02T00:23:05.573Z,102.70
2019-02-02T00:24:05.554Z,104.00
2019-02-02T00:25:05.541Z,101.20
2019-02-02T00:26:05.531Z,107.90
2019-02-02T00:27:05.520Z,108.10
2019-02-02T00:28:05.519Z,108.70
2019-02-02T00:29:05.501Z,107.60
2019-02-02T00:30:05.490Z,108.00
2019-02-02T00:31:05.479Z,108.10
2019-02-02T00:32:05.467Z,104.90
2019-02-02T00:33:05.467Z,111.00
2019-02-02T00:34:05.446Z,105.30
2019-02-02T00:35:05.441Z,109.30
2019-02-02T00:36:05.425Z,108.40
2019-02-02T00:37:05.416Z,109.90
2019-02-02T00:38:05.413Z,109.70
2019-02-02T00:39:05.394Z,110.50
2019-02-02T00:40:05.383Z,109.10
2019-02-02T00:41:05.375Z,107.20
2019-02-02T00:42:05.362Z,106.50
2019-02-02T00:43:05.363Z,107.10
2019-02-02T00:44:05.368Z,111.70
2019-02-02T00:45:05.331Z,114.90
2019-02-02T00:46:05.322Z,108.70
2019-02-02T00:47:05.309Z,109.90
2019-02-02T00:48:05.308Z,112.90
2019-02-02T00:49:05.296Z,109.70
2019-02-02T00:50:05.279Z,112.70
2019-02-02T00:51:05.268Z,115.00
2019-02-02T00:52:05.257Z,114.70
2019-02-02T00:53:05.256Z,110.90
2019-02-02T00:54:05.237Z,115.50
2019-02-02T00:55:05.230Z,113.90
2019-02-02T00:56:05.216Z,118.00
2019-02-02T00:57:05.203Z,117.00
2019-02-02T00:58:05.203Z,116.30
2019-02-02T00:59:05.186Z,120.20
2019-02-02T01:00:05.175Z,116.30
2019-02-02T01:01:05.163Z,113.20
2019-02-02T01:02:05.151Z,116.90
2019-02-02T01:03:05.149Z,118.80
2019-02-02T01:04:05.130Z,125.20
2019-02-02T01:05:05.124Z,116.40
2019-02-02T01:06:05.388Z,120.10
2019-02-02T01:07:05.098Z,118.20
2019-02-02T01:08:05.097Z,121.30
2019-02-02T01:09:05.076Z,121.10
2019-02-02T01:10:05.067Z,121.10
2019-02-02T01:11:05.056Z,122.00
2019-02-02T01:12:05.046Z,122.80
2019-02-02T01:13:05.046Z,122.80
2019-02-02T01:14:05.025Z,124.80
2019-02-02T01:15:05.013Z,118.70
2019-02-02T01:16:05.003Z,121.90
2019-02-02T01:17:04.991Z,125.80
2019-02-02T01:18:04.992Z,125.00
2019-02-02T01:19:04.972Z,121.50
2019-02-02T01:20:04.961Z,123.70
2019-02-02T01:21:04.953Z,127.30
2019-02-02T01:22:04.942Z,126.90
2019-02-02T01:23:05.286Z,128.00
2019-02-02T01:24:04.924Z,128.30
2019-02-02T01:25:04.908Z,130.10
2019-02-02T01:26:04.897Z,132.20
2019-02-02T01:27:04.887Z,132.10
2019-02-02T01:28:05.754Z,138.40
2019-02-02T01:29:04.877Z,136.00
2019-02-02T01:30:04.858Z,138.00
2019-02-02T01:31:04.844Z,136.50
2019-02-02T01:32:04.835Z,130.00
2019-02-02T01:33:04.827Z,131.10
2019-02-02T01:34:04.821Z,131.90
2019-02-02T01:35:04.808Z,132.60
2019-02-02T01:36:04.798Z,131.30
2019-02-02T01:37:04.781Z,133.60
2019-02-02T01:38:04.771Z,136.70
2019-02-02T01:39:04.769Z,140.00
2019-02-02T01:40:04.749Z,138.50
2019-02-02T01:41:04.740Z,139.80
2019-02-02T01:42:04.733Z,143.00
2019-02-02T01:43:04.718Z,140.00
2019-02-02T01:44:04.833Z,135.00
2019-02-02T01:45:04.696Z,146.50
2019-02-02T01:46:04.686Z,141.80
2019-02-02T01:47:04.680Z,140.10
2019-02-02T01:48:04.671Z,143.60
2019-02-02T01:49:04.663Z,141.50
2019-02-02T01:50:04.644Z,141.80
2019-02-02T01:51:04.633Z,147.90
2019-02-02T01:52:04.626Z,149.20
2019-02-02T01:53:04.612Z,144.50
2019-02-02T01:54:04.611Z,146.60
2019-02-02T01:55:04.592Z,144.30
2019-02-02T01:56:04.580Z,142.50
2019-02-02T01:57:04.569Z,147.80
2019-02-02T01:58:15.955Z,147.00
2019-02-02T01:59:05.556Z,145.20
2019-02-02T02:00:04.539Z,156.10
2019-02-02T02:01:04.529Z,143.70
2019-02-02T02:02:04.517Z,145.00
2019-02-02T02:03:04.506Z,141.30
2019-02-02T02:04:04.504Z,151.50
2019-02-02T02:05:04.486Z,149.60
2019-02-02T02:06:04.480Z,152.00
2019-02-02T02:07:04.464Z,151.70
2019-02-02T02:08:04.454Z,154.30
2019-02-02T02:09:04.456Z,153.30
2019-02-02T02:10:04.432Z,153.10
2019-02-02T02:11:04.422Z,152.70
2019-02-02T02:12:04.411Z,156.10
2019-02-02T02:13:04.400Z,157.70
2019-02-02T02:14:04.400Z,157.60
2019-02-02T02:15:04.381Z,154.10
2019-02-02T02:16:04.371Z,151.80
2019-02-02T02:17:04.360Z,154.60
2019-02-02T02:18:04.348Z,158.20
2019-02-02T02:19:04.349Z,161.80
2019-02-02T02:20:04.327Z,162.90
2019-02-02T02:21:04.316Z,158.20
2019-02-02T02:22:04.305Z,150.50
2019-02-02T02:23:04.307Z,160.00
2019-02-02T02:24:04.293Z,165.20
2019-02-02T02:25:04.274Z,157.00
2019-02-02T02:26:04.263Z,165.90
2019-02-02T02:27:04.253Z,155.00
2019-02-02T02:28:04.243Z,161.70
2019-02-02T02:29:04.240Z,163.90
2019-02-02T02:30:04.221Z,154.60
2019-02-02T02:31:04.216Z,155.90
2019-02-02T02:32:04.201Z,164.30
2019-02-02T02:33:04.188Z,167.10
2019-02-02T02:34:04.187Z,160.80
2019-02-02T02:35:04.174Z,178.40
2019-02-02T02:36:04.158Z,176.40
2019-02-02T02:37:04.163Z,172.40
2019-02-02T02:38:04.136Z,171.00
2019-02-02T02:39:04.151Z,171.30
2019-02-02T02:40:04.119Z,176.40
2019-02-02T02:41:04.106Z,166.60
2019-02-02T02:42:04.095Z,168.00
2019-02-02T02:43:04.085Z,178.90
2019-02-02T02:44:04.073Z,181.00
2019-02-02T02:45:04.071Z,181.00
2019-02-02T02:46:04.051Z,177.90
2019-02-02T02:47:04.041Z,170.40
2019-02-02T02:48:04.032Z,180.50
2019-02-02T02:49:04.020Z,181.00
2019-02-02T02:50:04.020Z,179.90
2019-02-02T02:51:03.999Z,182.80
2019-02-02T02:52:03.989Z,173.20
2019-02-02T02:53:03.982Z,174.80
2019-02-02T02:54:03.967Z,192.20
2019-02-02T02:55:03.968Z,194.80
2019-02-02T02:56:03.946Z,188.10
2019-02-02T02:57:03.937Z,200.60
2019-02-02T02:58:03.928Z,194.80
2019-02-02T02:59:03.914Z,194.90
2019-02-02T03:00:03.912Z,177.10
2019-02-02T03:01:03.894Z,186.20
2019-02-02T03:02:03.882Z,182.70
2019-02-02T03:03:03.884Z,190.90
2019-02-02T03:04:03.866Z,195.40
2019-02-02T03:05:03.858Z,197.80
2019-02-02T03:06:03.884Z,193.20
2019-02-02T03:07:03.830Z,194.60
2019-02-02T03:08:03.819Z,194.60
2019-02-02T03:09:03.808Z,179.90
2019-02-02T03:10:03.807Z,186.10
2019-02-02T03:11:03.787Z,186.40
2019-02-02T03:12:03.777Z,195.20
2019-02-02T03:13:03.766Z,204.70
2019-02-02T03:14:03.758Z,197.90
2019-02-02T03:15:03.754Z,197.90
2019-02-02T03:16:03.738Z,192.80
2019-02-02T03:17:03.723Z,202.50
2019-02-02T03:18:03.823Z,194.80
2019-02-02T03:19:03.703Z,202.60
2019-02-02T03:20:03.704Z,202.90
2019-02-02T03:21:03.683Z,206.90
2019-02-02T03:22:03.685Z,200.40
2019-02-02T03:23:03.659Z,203.00
2019-02-02T03:24:03.652Z,189.40
2019-02-02T03:25:03.651Z,199.30
2019-02-02T03:26:03.630Z,183.50
2019-02-02T03:27:03.689Z,185.80
2019-02-02T03:28:03.621Z,187.80
2019-02-02T03:29:03.598Z,194.70
2019-02-02T03:30:03.602Z,204.90
2019-02-02T03:31:03.591Z,207.60
2019-02-02T03:32:03.588Z,216.20
2019-02-02T03:33:03.558Z,203.90
2019-02-02T03:34:03.546Z,200.90
2019-02-02T03:35:03.540Z,198.70
2019-02-02T03:36:03.532Z,207.90
2019-02-02T03:37:03.520Z,198.90
2019-02-02T03:38:03.501Z,194.40
2019-02-02T03:39:03.491Z,189.40
2019-02-02T03:40:03.493Z,202.60
2019-02-02T03:41:03.471Z,200.50
2019-02-02T03:42:03.460Z,212.30
2019-02-02T03:43:03.454Z,204.10
2019-02-02T03:44:03.437Z,214.40
2019-02-02T03:45:03.440Z,206.00
2019-02-02T03:46:03.416Z,218.10
2019-02-02T03:47:03.414Z,201.20
2019-02-02T03:48:03.416Z,205.30
2019-02-02T03:49:03.392Z,192.70
2019-02-02T03:50:03.384Z,192.70
2019-02-02T03:51:03.369Z,211.10
2019-02-02T03:52:03.353Z,189.00
2019-02-02T03:53:03.342Z,195.90
2019-02-02T03:54:08.816Z,205.10
2019-02-02T03:55:04.329Z,196.40
2019-02-02T03:56:03.375Z,200.00
2019-02-02T03:57:03.301Z,197.00
2019-02-02T03:58:03.289Z,202.50
2019-02-02T03:59:06.503Z,192.50
2019-02-02T04:00:03.270Z,192.40
2019-02-02T04:01:03.268Z,179.40
2019-02-02T04:02:03.249Z,186.20
2019-02-02T04:03:03.240Z,197.90
2019-02-02T04:04:03.226Z,195.00
2019-02-02T04:05:03.214Z,193.50
2019-02-02T04:06:03.223Z,191.80
2019-02-02T04:07:03.194Z,191.30
2019-02-02T04:08:03.185Z,175.40
2019-02-02T04:09:03.179Z,198.00
2019-02-02T04:10:03.165Z,193.70
2019-02-02T04:11:03.163Z,187.10
2019-02-02T04:12:03.142Z,192.80
2019-02-02T04:13:03.137Z,195.20
2019-02-02T04:14:03.124Z,188.60
2019-02-02T04:15:03.110Z,181.00
2019-02-02T04:16:03.109Z,189.90
2019-02-02T04:17:03.091Z,178.10
2019-02-02T04:18:03.078Z,178.80
2019-02-02T04:19:03.075Z,184.20
2019-02-02T04:20:03.059Z,171.80
2019-02-02T04:21:03.058Z,178.90
2019-02-02T04:22:03.036Z,175.10
2019-02-02T04:23:03.028Z,173.90
2019-02-02T04:24:03.014Z,181.80
2019-02-02T04:25:03.007Z,184.80
2019-02-02T04:26:03.002Z,190.10
2019-02-02T04:27:02.985Z,180.60
2019-02-02T04:28:02.973Z,173.20
2019-02-02T04:29:02.961Z,189.30
2019-02-02T04:30:02.953Z,178.40
2019-02-02T04:31:02.948Z,181.20
2019-02-02T04:32:02.930Z,175.40
2019-02-02T04:33:02.922Z,179.00
2019-02-02T04:34:02.908Z,178.70
2019-02-02T04:35:02.897Z,188.50
2019-02-02T04:36:02.898Z,181.10
2019-02-02T04:37:02.877Z,189.50
2019-02-02T04:38:02.866Z,187.00
2019-02-02T04:39:02.858Z,179.70
2019-02-02T04:40:02.846Z,179.60
2019-02-02T04:41:02.843Z,188.50
2019-02-02T04:42:02.827Z,188.60
2019-02-02T04:43:02.836Z,184.90
2019-02-02T04:44:02.804Z,194.90
2019-02-02T04:45:02.793Z,182.50
2019-02-02T04:46:02.798Z,183.70
2019-02-02T04:47:02.771Z,186.00
2019-02-02T04:48:02.761Z,188.50
2019-02-02T04:49:02.751Z,180.80
2019-02-02T04:50:02.749Z,192.10
2019-02-02T04:51:02.737Z,181.10
2019-02-02T04:52:02.718Z,182.40
2019-02-02T04:53:02.708Z,179.00
2019-02-02T04:54:02.697Z,182.50
2019-02-02T04:55:02.688Z,192.90
2019-02-02T04:56:02.685Z,187.20
2019-02-02T04:57:02.666Z,197.20
2019-02-02T04:58:02.655Z,189.00
2019-02-02T04:59:02.645Z,184.90
2019-02-02T05:00:02.634Z,186.30
2019-02-02T05:01:02.632Z,194.20
2019-02-02T05:02:02.612Z,178.50
2019-02-02T05:03:02.602Z,182.10
2019-02-02T05:04:02.604Z,188.90
2019-02-02T05:05:02.581Z,177.40
2019-02-02T05:06:02.871Z,177.70
2019-02-02T05:07:02.560Z,197.40
2019-02-02T05:08:02.550Z,202.10
2019-02-02T05:09:02.539Z,188.10
2019-02-02T05:10:02.529Z,183.20
2019-02-02T05:11:02.518Z,181.20
2019-02-02T05:12:02.515Z,194.70
2019-02-02T05:13:02.496Z,188.60
2019-02-02T05:14:02.601Z,195.90
2019-02-02T05:15:02.476Z,193.20
2019-02-02T05:16:02.465Z,188.70
2019-02-02T05:17:02.463Z,197.60
2019-02-02T05:18:02.443Z,197.10
2019-02-02T05:19:02.434Z,190.30
2019-02-02T05:20:02.421Z,187.60
2019-02-02T05:21:02.414Z,193.00
2019-02-02T05:22:02.411Z,199.90
2019-02-02T05:23:02.392Z,189.80
2019-02-02T05:24:02.380Z,182.60
2019-02-02T05:25:02.369Z,193.40
2019-02-02T05:26:02.358Z,196.50
2019-02-02T05:27:02.357Z,191.80
2019-02-02T05:28:02.337Z,199.10
2019-02-02T05:29:02.327Z,189.90
2019-02-02T05:30:02.316Z,190.90
2019-02-02T05:31:02.310Z,192.60
2019-02-02T05:32:02.317Z,195.60
2019-02-02T05:33:02.394Z,189.50
2019-02-02T05:34:02.287Z,195.10
2019-02-02T05:35:02.263Z,187.30
2019-02-02T05:36:02.253Z,183.80
2019-02-02T05:37:02.251Z,188.90
2019-02-02T05:38:02.231Z,182.10
2019-02-02T05:39:02.220Z,185.10
2019-02-02T05:40:02.210Z,192.20
2019-02-02T05:41:02.200Z,185.70
2019-02-02T05:42:02.196Z,190.30
2019-02-02T05:43:02.185Z,188.90
2019-02-02T05:44:02.167Z,192.10
2019-02-02T05:45:02.157Z,199.10
2019-02-02T05:46:02.148Z,191.30
2019-02-02T05:47:02.148Z,196.50
2019-02-02T05:48:02.129Z,204.90
2019-02-02T05:49:02.115Z,204.50
2019-02-02T05:50:02.106Z,208.80
2019-02-02T05:51:02.098Z,192.70
2019-02-02T05:52:02.092Z,192.30
2019-02-02T05:53:02.075Z,192.90
2019-02-02T05:54:02.061Z,200.20
2019-02-02T05:55:02.053Z,196.50
2019-02-02T05:56:02.043Z,201.60
2019-02-02T05:57:02.039Z,200.40
2019-02-02T05:58:02.020Z,190.60
2019-02-02T05:59:02.008Z,194.00
2019-02-02T06:00:01.999Z,186.30
2019-02-02T06:01:01.990Z,196.00
2019-02-02T06:02:01.987Z,189.20
2019-02-02T06:03:01.993Z,195.70
2019-02-02T06:04:01.960Z,182.70
2019-02-02T06:05:01.946Z,192.40
2019-02-02T06:06:02.068Z,184.10
2019-02-02T06:07:01.949Z,195.10
2019-02-02T06:08:01.914Z,197.70
2019-02-02T06:09:01.904Z,193.20
2019-02-02T06:10:01.893Z,192.00
2019-02-02T06:11:01.882Z,175.50
2019-02-02T06:12:01.881Z,197.90
2019-02-02T06:13:01.861Z,191.50
2019-02-02T06:14:01.851Z,186.30
2019-02-02T06:15:01.840Z,190.20
2019-02-02T06:16:01.831Z,188.20
2019-02-02T06:17:01.830Z,178.50
2019-02-02T06:18:01.809Z,193.70
2019-02-02T06:19:01.798Z,178.90
2019-02-02T06:20:01.789Z,183.30
2019-02-02T06:21:01.777Z,180.80
2019-02-02T06:22:01.777Z,168.60
2019-02-02T06:23:01.755Z,187.70
2019-02-02T06:24:01.748Z,193.10
2019-02-02T06:25:01.735Z,188.30
2019-02-02T06:26:01.730Z,198.70
2019-02-02T06:27:01.740Z,185.10
2019-02-02T06:28:01.703Z,189.00
2019-02-02T06:29:01.694Z,195.20
2019-02-02T06:30:04.404Z,192.70
2019-02-02T06:31:01.672Z,195.40
2019-02-02T06:32:11.556Z,184.50
2019-02-02T06:33:02.650Z,181.90
2019-02-02T06:34:01.640Z,191.90
2019-02-02T06:35:01.633Z,184.40
2019-02-02T06:36:03.647Z,180.80
2019-02-02T06:37:01.616Z,191.40
2019-02-02T06:38:01.598Z,180.60
2019-02-02T06:39:01.589Z,168.90
2019-02-02T06:40:01.580Z,187.30
2019-02-02T06:41:01.567Z,190.00
2019-02-02T06:42:01.564Z,184.80
2019-02-02T06:43:01.545Z,184.60
2019-02-02T06:44:01.539Z,187.70
2019-02-02T06:45:01.530Z,179.50
2019-02-02T06:46:01.574Z,177.30
2019-02-02T06:47:01.512Z,188.10
2019-02-02T06:48:01.496Z,196.40
2019-02-02T06:49:01.688Z,191.70
2019-02-02T06:50:01.470Z,192.00
2019-02-02T06:51:01.461Z,185.20
2019-02-02T06:52:01.458Z,178.10
2019-02-02T06:53:01.441Z,192.90
2019-02-02T06:54:01.429Z,191.80
2019-02-02T06:55:01.419Z,192.40
2019-02-02T06:56:01.407Z,194.40
2019-02-02T06:57:01.430Z,195.00
2019-02-02T06:58:01.388Z,193.30
2019-02-02T06:59:01.376Z,190.70
2019-02-02T07:00:01.366Z,202.30
2019-02-02T07:01:01.359Z,199.70
2019-02-02T07:02:01.348Z,193.20
2019-02-02T07:03:01.344Z,188.90
2019-02-02T07:04:01.323Z,196.00
2019-02-02T07:05:01.312Z,186.70
2019-02-02T07:06:01.306Z,204.10
2019-02-02T07:07:01.293Z,190.80
2019-02-02T07:08:01.289Z,203.20
2019-02-02T07:09:01.270Z,185.20
2019-02-02T07:10:01.261Z,195.30
2019-02-02T07:11:01.252Z,206.90
2019-02-02T07:12:01.238Z,205.70
2019-02-02T07:13:01.238Z,192.30
2019-02-02T07:14:01.217Z,194.80
2019-02-02T07:15:01.206Z,201.90
2019-02-02T07:16:01.198Z,193.40
2019-02-02T07:17:01.188Z,200.00
2019-02-02T07:18:01.185Z,187.20
2019-02-02T07:19:01.164Z,187.80
2019-02-02T07:20:01.155Z,202.30
2019-02-02T07:21:01.144Z,207.50
2019-02-02T07:22:01.136Z,199.70
2019-02-02T07:23:01.131Z,200.80
2019-02-02T07:24:01.113Z,202.20
2019-02-02T07:25:01.121Z,228.70
2019-02-02T07:26:01.090Z,216.30
2019-02-02T07:27:01.082Z,214.60
2019-02-02T07:28:01.078Z,218.80
2019-02-02T07:29:01.060Z,186.40
2019-02-02T07:30:01.048Z,219.70
2019-02-02T07:31:01.038Z,207.80
2019-02-02T07:32:01.027Z,213.90
2019-02-02T07:33:01.025Z,217.60
2019-02-02T07:34:01.006Z,205.90
2019-02-02T07:35:00.996Z,218.50
2019-02-02T07:36:00.986Z,220.60
2019-02-02T07:37:00.975Z,201.90
2019-02-02T07:38:00.973Z,210.10
2019-02-02T07:39:00.954Z,206.20
2019-02-02T07:40:00.943Z,213.00
2019-02-02T07:41:00.931Z,200.30
2019-02-02T07:42:00.939Z,215.00
2019-02-02T07:43:00.919Z,201.90
2019-02-02T07:44:00.900Z,208.90
2019-02-02T07:45:00.890Z,198.50
2019-02-02T07:46:00.879Z,208.20
2019-02-02T07:47:00.868Z,195.10
2019-02-02T07:48:00.885Z,212.00
2019-02-02T07:49:00.848Z,212.40
2019-02-02T07:50:00.837Z,210.50
2019-02-02T07:51:00.855Z,211.20
2019-02-02T07:52:00.818Z,201.50
2019-02-02T07:53:00.816Z,201.10
2019-02-02T07:54:00.794Z,207.30
2019-02-02T07:55:00.783Z,191.20
2019-02-02T07:56:00.774Z,204.80
2019-02-02T07:57:00.762Z,198.90
2019-02-02T07:58:00.760Z,208.10
2019-02-02T07:59:00.741Z,205.10
2019-02-02T08:00:00.731Z,204.90
2019-02-02T08:01:00.720Z,198.60
2019-02-02T08:02:00.709Z,202.50
2019-02-02T08:03:00.706Z,197.70
2019-02-02T08:04:00.692Z,213.90
2019-02-02T08:05:00.678Z,209.40
2019-02-02T08:06:00.668Z,211.70
2019-02-02T08:07:00.655Z,213.40
2019-02-02T08:08:00.657Z,213.90
2019-02-02T08:09:00.640Z,200.10
2019-02-02T08:10:00.624Z,203.20
2019-02-02T08:11:00.615Z,213.00
2019-02-02T08:12:00.603Z,217.80
2019-02-02T08:13:00.608Z,217.10
2019-02-02T08:14:00.585Z,244.60
2019-02-02T08:15:00.572Z,273.90
2019-02-02T08:16:00.562Z,281.10
2019-02-02T08:17:00.550Z,260.00
2019-02-02T08:18:00.549Z,222.50
2019-02-02T08:19:00.529Z,205.90
2019-02-02T08:20:00.520Z,222.10
2019-02-02T08:21:00.507Z,221.70
2019-02-02T08:22:00.497Z,200.70
2019-02-02T08:23:00.496Z,223.80
2019-02-02T08:24:00.478Z,237.80
2019-02-02T08:25:00.469Z,221.00
2019-02-02T08:26:00.454Z,225.80
2019-02-02T08:27:00.445Z,259.50
2019-02-02T08:28:00.449Z,254.20
2019-02-02T08:29:00.429Z,256.40
2019-02-02T08:30:00.414Z,224.10
2019-02-02T08:31:00.402Z,210.80
2019-02-02T08:32:00.391Z,207.20
2019-02-02T08:33:00.388Z,197.40
2019-02-02T08:34:00.370Z,200.20
2019-02-02T08:35:00.358Z,201.70
2019-02-02T08:36:00.349Z,201.90
2019-02-02T08:37:00.338Z,220.10
2019-02-02T08:38:00.341Z,221.70
2019-02-02T08:39:00.324Z,198.00
2019-02-02T08:40:00.306Z,200.20
2019-02-02T08:41:00.295Z,190.20
2019-02-02T08:42:00.284Z,210.60
2019-02-02T08:43:00.282Z,221.20
2019-02-02T08:44:00.266Z,211.30
2019-02-02T08:45:00.258Z,203.50
2019-02-02T08:46:00.265Z,198.80
2019-02-02T08:47:00.231Z,203.20
2019-02-02T08:48:00.229Z,213.80
2019-02-02T08:49:00.211Z,207.10
2019-02-02T08:50:00.202Z,201.00
2019-02-02T08:51:00.274Z,199.00
2019-02-02T08:52:00.177Z,221.80
2019-02-02T08:53:00.295Z,208.50
2019-02-02T08:54:03.212Z,213.40
2019-02-02T08:55:00.680Z,211.70
2019-02-02T08:56:00.136Z,203.40
2019-02-02T08:57:00.209Z,213.60
2019-02-02T08:58:00.142Z,209.60
2019-02-02T08:59:00.106Z,194.90
2019-02-02T09:00:00.162Z,204.20
2019-02-02T09:01:04.117Z,207.90
2019-02-02T09:02:00.069Z,204.00
2019-02-02T09:03:00.072Z,189.90
2019-02-02T09:04:00.096Z,190.20
2019-02-02T09:05:00.080Z,182.50
2019-02-02T09:06:00.106Z,198.70
2019-02-02T09:07:00.017Z,207.40
2019-02-02T09:08:00.013Z,207.80
2019-02-02T09:08:59.994Z,209.20
2019-02-02T09:09:59.985Z,216.20
2019-02-02T09:10:59.972Z,209.00
2019-02-02T09:11:59.965Z,219.90
2019-02-02T09:12:59.960Z,210.00
2019-02-02T09:13:59.944Z,222.50
2019-02-02T09:14:59.930Z,203.30
2019-02-02T09:15:59.920Z,213.90
2019-02-02T09:16:59.909Z,219.00
2019-02-02T09:17:59.898Z,203.60
2019-02-02T09:18:59.895Z,222.70
2019-02-02T09:19:59.878Z,211.60
2019-02-02T09:20:59.867Z,227.90
2019-02-02T09:21:59.855Z,206.30
2019-02-02T09:23:04.207Z,190.30
2019-02-02T09:24:00.846Z,207.70
2019-02-02T09:24:59.822Z,215.90
2019-02-02T09:25:59.812Z,206.10
2019-02-02T09:26:59.801Z,214.70
2019-02-02T09:27:59.790Z,203.00
2019-02-02T09:28:59.788Z,214.30
2019-02-02T09:29:59.769Z,199.50
2019-02-02T09:30:59.759Z,205.10
2019-02-02T09:31:59.749Z,212.10
2019-02-02T09:32:59.737Z,227.90
2019-02-02T09:33:59.735Z,206.80
2019-02-02T09:34:59.715Z,214.10
2019-02-02T09:35:59.704Z,198.50
2019-02-02T09:36:59.693Z,208.20
2019-02-02T09:37:59.683Z,201.40
2019-02-02T09:38:59.680Z,210.00
2019-02-02T09:39:59.660Z,209.00
2019-02-02T09:40:59.653Z,212.10
2019-02-02T09:41:59.639Z,211.60
2019-02-02T09:42:59.632Z,232.10
2019-02-02T09:43:59.635Z,200.40
2019-02-02T09:44:59.607Z,227.40
2019-02-02T09:45:59.595Z,218.60
2019-02-02T09:46:59.586Z,211.30
2019-02-02T09:47:59.576Z,216.70
2019-02-02T09:48:59.575Z,212.20
2019-02-02T09:49:59.553Z,206.80
2019-02-02T09:50:59.542Z,211.80
2019-02-02T09:51:59.531Z,211.70
2019-02-02T09:52:59.526Z,197.70
2019-02-02T09:53:59.525Z,229.90
2019-02-02T09:54:59.499Z,211.00
2019-02-02T09:55:59.514Z,206.10
2019-02-02T09:56:59.478Z,209.00
2019-02-02T09:57:59.467Z,220.20
2019-02-02T09:58:59.464Z,208.00
2019-02-02T09:59:59.445Z,207.40
2019-02-02T10:00:59.435Z,200.20
2019-02-02T10:01:59.424Z,200.70
2019-02-02T10:02:59.414Z,212.80
2019-02-02T10:03:59.412Z,213.70
2019-02-02T10:04:59.393Z,206.50
2019-02-02T10:05:59.380Z,223.80
2019-02-02T10:06:59.370Z,225.60
2019-02-02T10:07:59.360Z,241.10
2019-02-02T10:08:59.357Z,225.30
2019-02-02T10:09:59.337Z,214.60
2019-02-02T10:10:59.326Z,208.50
2019-02-02T10:11:59.319Z,216.00
2019-02-02T10:12:59.306Z,219.00
2019-02-02T10:13:59.303Z,206.10
2019-02-02T10:14:59.401Z,203.50
2019-02-02T10:15:59.273Z,195.20
2019-02-02T10:16:59.265Z,198.20
2019-02-02T10:17:59.255Z,194.80
2019-02-02T10:18:59.250Z,211.40
2019-02-02T10:19:59.230Z,218.80
2019-02-02T10:21:03.993Z,206.30
2019-02-02T10:22:00.226Z,197.80
2019-02-02T10:22:59.198Z,207.80
2019-02-02T10:23:59.195Z,204.80
2019-02-02T10:24:59.177Z,197.60
2019-02-02T10:25:59.170Z,208.50
2019-02-02T10:26:59.155Z,195.20
2019-02-02T10:27:59.144Z,200.80
2019-02-02T10:28:59.167Z,216.00
2019-02-02T10:29:59.128Z,207.90
2019-02-02T10:30:59.112Z,200.10
2019-02-02T10:31:59.101Z,212.60
2019-02-02T10:32:59.090Z,200.30
2019-02-02T10:33:59.088Z,198.90
2019-02-02T10:34:59.077Z,200.00
2019-02-02T10:35:59.058Z,214.90
2019-02-02T10:36:59.048Z,209.90
2019-02-02T10:37:59.037Z,207.70
2019-02-02T10:38:59.039Z,207.30
2019-02-02T10:39:59.014Z,217.10
2019-02-02T10:40:59.011Z,198.10
2019-02-02T10:41:58.992Z,194.70
2019-02-02T10:42:58.981Z,209.80
2019-02-02T10:43:58.983Z,243.00
2019-02-02T10:44:58.960Z,235.80
2019-02-02T10:45:58.952Z,248.80
2019-02-02T10:46:58.944Z,236.70
2019-02-02T10:47:58.937Z,231.20
2019-02-02T10:48:58.926Z,239.50
2019-02-02T10:49:58.907Z,245.10
2019-02-02T10:50:58.897Z,220.10
2019-02-02T10:51:58.886Z,226.00
2019-02-02T10:52:58.901Z,214.20
2019-02-02T10:53:58.877Z,208.90
2019-02-02T10:54:58.852Z,232.40
2019-02-02T10:55:58.842Z,236.90
2019-02-02T10:56:58.831Z,251.70
2019-02-02T10:57:58.821Z,246.70
2019-02-02T10:58:58.821Z,253.50
2019-02-02T10:59:58.800Z,260.20
2019-02-02T11:00:58.788Z,246.90
2019-02-02T11:01:58.776Z,248.70
2019-02-02T11:02:58.769Z,244.20
2019-02-02T11:03:58.768Z,242.90
2019-02-02T11:04:58.791Z,250.70
2019-02-02T11:05:58.734Z,244.80
2019-02-02T11:06:58.800Z,285.80
2019-02-02T11:07:58.896Z,254.10
2019-02-02T11:08:58.767Z,233.30
2019-02-02T11:09:58.734Z,244.40
2019-02-02T11:10:58.716Z,231.90
2019-02-02T11:11:58.683Z,236.40
2019-02-02T11:12:58.752Z,231.30
2019-02-02T11:13:58.672Z,246.80
2019-02-02T11:14:58.671Z,254.40
2019-02-02T11:15:58.678Z,240.90
2019-02-02T11:16:58.701Z,246.30
2019-02-02T11:17:58.668Z,223.10
2019-02-02T11:18:58.604Z,239.30
2019-02-02T11:19:58.706Z,227.90
2019-02-02T11:20:58.652Z,243.90
2019-02-02T11:21:58.669Z,220.80
2019-02-02T11:22:58.627Z,224.50
2019-02-02T11:23:58.701Z,250.10
2019-02-02T11:24:58.576Z,232.70
2019-02-02T11:25:58.612Z,231.10
2019-02-02T11:26:58.606Z,212.50
2019-02-02T11:27:58.631Z,226.50
2019-02-02T11:28:58.615Z,250.30
2019-02-02T11:29:58.475Z,228.20
2019-02-02T11:30:58.467Z,230.40
2019-02-02T11:32:02.914Z,220.60
2019-02-02T11:32:58.447Z,240.80
2019-02-02T11:33:58.445Z,226.40
2019-02-02T11:34:58.421Z,247.60
2019-02-02T11:35:58.411Z,245.20
2019-02-02T11:36:58.400Z,226.60
2019-02-02T11:37:58.391Z,225.40
2019-02-02T11:38:59.605Z,233.50
2019-02-02T11:39:58.368Z,249.00
2019-02-02T11:40:58.356Z,235.20
2019-02-02T11:41:58.347Z,248.60
2019-02-02T11:42:58.336Z,231.30
2019-02-02T11:43:58.332Z,233.60
2019-02-02T11:44:58.318Z,240.80
2019-02-02T11:45:58.303Z,244.00
2019-02-02T11:46:58.292Z,249.70
2019-02-02T11:47:58.281Z,276.90
2019-02-02T11:48:58.291Z,248.00
2019-02-02T11:49:58.260Z,245.00
2019-02-02T11:50:58.249Z,246.00
2019-02-02T11:51:58.240Z,271.60
2019-02-02T11:52:58.227Z,277.40
2019-02-02T11:53:58.233Z,281.90
2019-02-02T11:54:58.207Z,275.60
2019-02-02T11:55:58.195Z,257.90
2019-02-02T11:56:58.184Z,275.00
2019-02-02T11:57:58.173Z,313.10
2019-02-02T11:58:58.171Z,245.90
2019-02-02T11:59:58.152Z,264.10
2019-02-02T12:00:58.142Z,247.60
2019-02-02T12:01:58.134Z,251.80
2019-02-02T12:02:58.133Z,280.20
2019-02-02T12:03:58.255Z,265.10
2019-02-02T12:04:58.098Z,264.50
2019-02-02T12:05:58.086Z,255.90
2019-02-02T12:06:58.076Z,305.50
2019-02-02T12:07:58.068Z,284.50
2019-02-02T12:08:58.059Z,284.00
2019-02-02T12:09:58.053Z,264.80
2019-02-02T12:10:58.034Z,259.20
2019-02-02T12:11:58.023Z,256.90
2019-02-02T12:12:58.014Z,278.60
2019-02-02T12:13:58.005Z,255.60
2019-02-02T12:14:57.999Z,243.20
2019-02-02T12:15:57.980Z,281.80
2019-02-02T12:16:57.968Z,257.60
2019-02-02T12:17:57.962Z,246.90
2019-02-02T12:18:57.954Z,263.60
2019-02-02T12:19:57.951Z,254.60
2019-02-02T12:20:57.926Z,236.80
2019-02-02T12:21:57.915Z,239.50
2019-02-02T12:22:57.906Z,254.70
2019-02-02T12:23:57.896Z,245.00
2019-02-02T12:24:57.897Z,245.40
2019-02-02T12:25:57.874Z,252.60
2019-02-02T12:26:57.862Z,240.90
2019-02-02T12:27:57.850Z,252.30
2019-02-02T12:28:57.840Z,246.70